Else Marie Theresa — OWJL2 — position and weather

sailwx.info

Track history (hours):
 
Tides and Currents Weather Stations Pressure Air Temp Water Temp Dewpoint Dewpoint Depression Visibility Wind Speed Wind Dir Waves Ship Positions

Else Marie Theresa

Last reported at 2017-Nov-24 02:07 UTC. Time now 2017-Nov-24 05:42 UTC.
Position N 52°32' W 005°49'.

Length 96 m; draft 6.9 m.

Type: Tanker. MMSI: 220002000.

Date/timePositionNaut miles runAvg speedWind from/ knotsBaromVisibWave heightAir tempDewpointWater temp
2017-Nov-24 02:07N 52°32' W 005°49'1 9.5
2017-Nov-24 02:00N 52°31' W 005°49'5 9.7
2017-Nov-24 01:29N 52°26' W 005°49'5 9.9
2017-Nov-24 01:01N 52°21' W 005°48'510.2
2017-Nov-24 00:30N 52°16' W 005°48'611.0
2017-Nov-24 00:00N 52°10' W 005°47'611.5
2017-Nov-23 23:31N 52°05' W 005°47'3311.9
2017-Nov-23 20:45N 51°32' W 005°51'411.4
2017-Nov-23 20:23N 51°28' W 005°51'2711.1
2017-Nov-23 18:00N 51°01' W 005°51'510.4
2017-Nov-23 17:30N 50°56' W 005°51'510.2
2017-Nov-23 17:00N 50°51' W 005°51'510.2
2017-Nov-23 16:30N 50°46' W 005°51'510.1
2017-Nov-23 16:01N 50°41' W 005°52'510.0
2017-Nov-23 15:31N 50°36' W 005°52'5 9.9
2017-Nov-23 15:00N 50°31' W 005°52'5 9.7
2017-Nov-23 14:30N 50°26' W 005°53'4 9.2
2017-Nov-23 14:01N 50°21' W 005°53'5 9.4
2017-Nov-23 13:29N 50°16' W 005°53'4 9.1
2017-Nov-23 13:00N 50°12' W 005°52'4 8.7
2017-Nov-23 12:30N 50°08' W 005°52'5 8.8
2017-Nov-23 11:59N 50°03' W 005°51'12 7.1
2017-Nov-23 10:16N 49°57' W 005°35'2 8.1
2017-Nov-23 09:59N 49°57' W 005°32'7 7.9
2017-Nov-23 09:06N 49°55' W 005°21'4 7.4
2017-Nov-23 08:30N 49°55' W 005°14'3 7.0
2017-Nov-23 08:01N 49°54' W 005°09'4 7.2
2017-Nov-23 07:31N 49°55' W 005°03'4 7.1
2017-Nov-23 07:00N 49°55' W 004°58'3 6.9
2017-Nov-23 06:30N 49°56' W 004°52'4 7.3
2017-Nov-23 06:01N 49°56' W 004°47'4 7.4
2017-Nov-23 05:31N 49°57' W 004°41'3 6.9
2017-Nov-23 05:00N 49°58' W 004°36'4 7.1
2017-Nov-23 04:31N 49°59' W 004°31'4 7.2
2017-Nov-23 04:01N 49°59' W 004°25'4 7.3
2017-Nov-23 03:31N 49°60' W 004°20'4 7.5
2017-Nov-23 03:01N 50°00' W 004°14'4 7.7
2017-Nov-23 02:31N 50°01' W 004°08'4 7.7
2017-Nov-23 02:00N 50°01' W 004°02'4 7.8
2017-Nov-23 01:30N 50°02' W 003°56'4 7.5
2017-Nov-23 00:55N 50°03' W 003°49'3 7.0
2017-Nov-23 00:31N 50°04' W 003°45'3 6.5
2017-Nov-23 00:00N 50°05' W 003°40'3 6.3
2017-Nov-22 23:31N 50°05' W 003°35'3 5.6
2017-Nov-22 23:01N 50°06' W 003°31'2 5.0
2017-Nov-22 22:31N 50°07' W 003°27'2 4.5
2017-Nov-22 22:00N 50°07' W 003°24'2 4.4
2017-Nov-22 21:30N 50°08' W 003°21'2 4.5
2017-Nov-22 21:00N 50°08' W 003°17'2 4.5
2017-Nov-22 20:31N 50°09' W 003°14'2 4.3
2017-Nov-22 20:01N 50°09' W 003°10'2 4.8
2017-Nov-22 19:31N 50°09' W 003°07'  
2017-Nov-20 00:31N 51°48' E 004°39'0 0.0
2017-Nov-20 00:01N 51°48' E 004°39'0 0.1
2017-Nov-19 23:30N 51°48' E 004°39'1 1.1
2017-Nov-19 23:00N 51°47' E 004°38'0 0.0
2017-Nov-19 22:30N 51°47' E 004°38'0 0.0
2017-Nov-19 21:58N 51°47' E 004°38'0 0.0
2017-Nov-19 21:28N 51°47' E 004°38'0 0.0
2017-Nov-19 20:55N 51°47' E 004°38'0 0.0
2017-Nov-19 20:28N 51°47' E 004°38'0 0.0
2017-Nov-19 19:58N 51°47' E 004°38'0 0.0
2017-Nov-19 19:28N 51°47' E 004°38'0 0.0
2017-Nov-19 18:58N 51°47' E 004°38'0 0.0
2017-Nov-19 18:28N 51°47' E 004°38'0 0.0
2017-Nov-19 17:58N 51°47' E 004°38'0 0.0
2017-Nov-19 17:25N 51°47' E 004°38'0 0.0
2017-Nov-19 16:58N 51°47' E 004°38'0 0.0
2017-Nov-19 16:28N 51°47' E 004°38'0 0.0
2017-Nov-19 15:55N 51°47' E 004°38'0 0.0
2017-Nov-19 15:28N 51°47' E 004°38'0 0.0
2017-Nov-19 14:52N 51°47' E 004°38'0 0.0
2017-Nov-19 14:22N 51°47' E 004°38'0 0.0
2017-Nov-19 13:43N 51°47' E 004°38'0 0.0
2017-Nov-19 13:22N 51°47' E 004°38'0 0.0
2017-Nov-19 12:55N 51°47' E 004°38'0 0.0
2017-Nov-19 12:25N 51°47' E 004°38'0 0.0
2017-Nov-19 11:55N 51°47' E 004°38'0 0.0
2017-Nov-19 11:28N 51°47' E 004°38'0 0.0
2017-Nov-19 10:58N 51°47' E 004°38'0 0.0
2017-Nov-19 10:28N 51°47' E 004°38'0 0.0
2017-Nov-19 09:58N 51°47' E 004°38'0 0.0
2017-Nov-19 09:25N 51°47' E 004°38'0 0.0
2017-Nov-19 08:58N 51°47' E 004°38'0 0.0
2017-Nov-19 08:28N 51°47' E 004°38'0 0.0
2017-Nov-19 07:58N 51°47' E 004°38'0 0.0
2017-Nov-19 07:28N 51°47' E 004°38'0 0.0
2017-Nov-19 06:58N 51°47' E 004°38'0 0.0
2017-Nov-19 06:28N 51°47' E 004°38'0 0.0
2017-Nov-19 05:58N 51°47' E 004°38'0 0.0
2017-Nov-19 05:28N 51°47' E 004°38'0 0.0
2017-Nov-19 04:58N 51°47' E 004°38'0 0.0
2017-Nov-19 04:25N 51°47' E 004°38'0 0.0
2017-Nov-19 03:58N 51°47' E 004°38'0 0.0
2017-Nov-19 03:28N 51°47' E 004°38'0 0.0
2017-Nov-19 02:49N 51°47' E 004°38'0 0.0
2017-Nov-19 02:28N 51°47' E 004°38'0 0.0
2017-Nov-19 01:55N 51°47' E 004°38'0 0.0
2017-Nov-19 01:28N 51°47' E 004°38'0 0.0
2017-Nov-19 01:01N 51°47' E 004°38'1 1.2
2017-Nov-19 00:31N 51°48' E 004°39'0 0.0
2017-Nov-19 00:00N 51°48' E 004°39'0 0.0
2017-Nov-18 23:30N 51°48' E 004°39'0 0.0
2017-Nov-18 23:00N 51°48' E 004°39'0 0.0
2017-Nov-18 22:31N 51°48' E 004°39'0 0.0
2017-Nov-18 22:01N 51°48' E 004°39'0 0.0
2017-Nov-18 21:30N 51°48' E 004°39'0 0.0
2017-Nov-18 21:00N 51°48' E 004°39'0 0.0
2017-Nov-18 20:30N 51°48' E 004°39'0 0.0
2017-Nov-18 20:00N 51°48' E 004°39'0 0.0
2017-Nov-18 19:30N 51°48' E 004°39'0 0.0
2017-Nov-18 19:01N 51°48' E 004°39'0 0.0
2017-Nov-18 18:28N 51°48' E 004°39'0 0.0
2017-Nov-18 18:00N 51°48' E 004°39'0 0.0
2017-Nov-18 17:30N 51°48' E 004°39'0 0.0
2017-Nov-18 17:00N 51°48' E 004°39'0 0.0
2017-Nov-18 16:30N 51°48' E 004°39'0 0.0
2017-Nov-18 16:00N 51°48' E 004°39'0 0.0
2017-Nov-18 15:28N 51°48' E 004°39'0 0.0
2017-Nov-18 15:00N 51°48' E 004°39'0 0.0
2017-Nov-18 14:30N 51°48' E 004°39'0 0.0
2017-Nov-18 14:01N 51°48' E 004°39'0 0.0
2017-Nov-18 13:31N 51°48' E 004°39'0 0.0
2017-Nov-18 13:00N 51°48' E 004°39'0 0.0
2017-Nov-18 12:29N 51°48' E 004°39'0 0.0
2017-Nov-18 12:01N 51°48' E 004°39'0 0.0
2017-Nov-18 11:31N 51°48' E 004°39'0 0.0
2017-Nov-18 11:00N 51°48' E 004°39'0 0.0
2017-Nov-18 10:30N 51°48' E 004°39'0 0.0
2017-Nov-18 10:00N 51°48' E 004°39'0 0.0
2017-Nov-18 09:30N 51°48' E 004°39'0 0.0
2017-Nov-18 08:56N 51°48' E 004°39'0 0.0
2017-Nov-18 08:31N 51°48' E 004°39'0 0.0
2017-Nov-18 08:00N 51°48' E 004°39'0 0.0
2017-Nov-18 07:31N 51°48' E 004°39'0 0.0
2017-Nov-18 06:58N 51°48' E 004°39'0 0.0
2017-Nov-18 06:29N 51°48' E 004°39'0 0.0
2017-Nov-18 05:59N 51°48' E 004°39'0 0.0
2017-Nov-18 05:30N 51°48' E 004°39'0 0.0
2017-Nov-18 05:01N 51°48' E 004°39'0 0.0
2017-Nov-18 04:30N 51°48' E 004°39'0 0.0
2017-Nov-18 04:00N 51°48' E 004°39'0 0.0
2017-Nov-18 03:27N 51°48' E 004°39'0 0.0
2017-Nov-18 03:00N 51°48' E 004°39'0 0.0
2017-Nov-18 02:30N 51°48' E 004°39'0 0.0
2017-Nov-18 02:00N 51°48' E 004°39'0 0.0
2017-Nov-18 01:29N 51°48' E 004°39'0 0.0
2017-Nov-18 01:01N 51°48' E 004°39'0 0.0
2017-Nov-18 00:31N 51°48' E 004°39'0 0.0
2017-Nov-18 00:00N 51°48' E 004°39'0 0.0
2017-Nov-17 23:31N 51°48' E 004°39'0 0.0
2017-Nov-17 22:59N 51°48' E 004°39'0 0.0
2017-Nov-17 22:30N 51°48' E 004°39'0 0.0
2017-Nov-17 21:59N 51°48' E 004°39'0 0.0
2017-Nov-17 21:26N 51°48' E 004°39'0 0.0
2017-Nov-17 20:59N 51°48' E 004°39'0 0.0
2017-Nov-17 20:27N 51°48' E 004°39'0 0.0
2017-Nov-17 20:00N 51°48' E 004°39'0 0.0
2017-Nov-17 19:31N 51°48' E 004°39'0 0.0
2017-Nov-17 19:00N 51°48' E 004°39'0 0.0
2017-Nov-17 18:31N 51°48' E 004°39'0 0.0
2017-Nov-17 18:01N 51°48' E 004°39'0 0.0
2017-Nov-17 17:30N 51°48' E 004°39'0 0.0
2017-Nov-17 17:01N 51°48' E 004°39'0 0.0
2017-Nov-17 16:27N 51°48' E 004°39'0 0.0
2017-Nov-17 16:00N 51°48' E 004°39'0 0.0
2017-Nov-17 15:31N 51°48' E 004°39'0 0.0
2017-Nov-17 15:01N 51°48' E 004°39'0 0.0
2017-Nov-17 14:30N 51°48' E 004°39'0 0.0
2017-Nov-17 14:00N 51°48' E 004°39'0 0.0
2017-Nov-17 13:31N 51°48' E 004°39'0 0.0
2017-Nov-17 13:01N 51°48' E 004°39'0 0.0
2017-Nov-17 12:30N 51°48' E 004°39'0 0.0
2017-Nov-17 12:01N 51°48' E 004°39'0 0.0
2017-Nov-17 11:28N 51°48' E 004°39'0 0.0
2017-Nov-17 11:01N 51°48' E 004°39'0 0.0
2017-Nov-17 10:27N 51°48' E 004°39'0 0.0
2017-Nov-17 10:01N 51°48' E 004°39'0 0.0
2017-Nov-17 09:31N 51°48' E 004°39'0 0.0
2017-Nov-17 09:00N 51°48' E 004°39'0 0.0
2017-Nov-17 08:30N 51°48' E 004°39'0 0.0
2017-Nov-17 08:00N 51°48' E 004°39'0 0.0
2017-Nov-17 07:30N 51°48' E 004°39'0 0.0
2017-Nov-17 06:59N 51°48' E 004°39'0 0.0
2017-Nov-17 06:30N 51°48' E 004°39'0 0.0
2017-Nov-17 06:00N 51°48' E 004°39'0 0.0
2017-Nov-17 05:30N 51°48' E 004°39'0 0.0
2017-Nov-17 05:01N 51°48' E 004°39'0 0.0
2017-Nov-17 04:28N 51°48' E 004°39'0 0.0
2017-Nov-17 04:00N 51°48' E 004°39'0 0.0
2017-Nov-17 03:31N 51°48' E 004°39'0 0.0
2017-Nov-17 02:59N 51°48' E 004°39'0 0.0
2017-Nov-17 02:31N 51°48' E 004°39'0 0.0
2017-Nov-17 02:00N 51°48' E 004°39'0 0.0
2017-Nov-17 01:29N 51°48' E 004°39'0 0.0
2017-Nov-17 01:00N 51°48' E 004°39'0 0.0
2017-Nov-17 00:31N 51°48' E 004°39'0 0.0
2017-Nov-17 00:00N 51°48' E 004°39'0 0.0
2017-Nov-16 23:30N 51°48' E 004°39'0 0.0
2017-Nov-16 23:00N 51°48' E 004°39'0 0.0
2017-Nov-16 22:31N 51°48' E 004°39'0 0.0
2017-Nov-16 22:01N 51°48' E 004°39'0 0.0
2017-Nov-16 21:30N 51°48' E 004°39'0 0.0
2017-Nov-16 20:57N 51°48' E 004°39'0 0.0
2017-Nov-16 20:28N 51°48' E 004°39'0 0.0
2017-Nov-16 20:00N 51°48' E 004°39'0 0.0
2017-Nov-16 19:30N 51°48' E 004°39'0 0.0
2017-Nov-16 19:01N 51°48' E 004°39'0 0.0
2017-Nov-16 18:30N 51°48' E 004°39'0 0.0
2017-Nov-16 18:01N 51°48' E 004°39'0 0.0
2017-Nov-16 17:28N 51°48' E 004°39'0 0.0
2017-Nov-16 17:00N 51°48' E 004°39'0 0.0
2017-Nov-16 16:31N 51°48' E 004°39'0 0.0
2017-Nov-16 15:59N 51°48' E 004°39'0 0.0
2017-Nov-16 15:31N 51°48' E 004°39'0 0.0
2017-Nov-16 15:01N 51°48' E 004°39'0 0.0
2017-Nov-16 14:30N 51°48' E 004°39'0 0.0
2017-Nov-16 14:01N 51°48' E 004°39'0 0.0
2017-Nov-16 13:30N 51°48' E 004°39'0 0.0
2017-Nov-16 13:01N 51°48' E 004°39'0 0.0
2017-Nov-16 12:30N 51°48' E 004°39'1 1.0
2017-Nov-16 11:59N 51°47' E 004°38'0 0.0
2017-Nov-16 11:29N 51°47' E 004°38'0 0.0
2017-Nov-16 10:59N 51°47' E 004°38'0 0.0
2017-Nov-16 10:29N 51°47' E 004°38'0 0.0
2017-Nov-16 09:59N 51°47' E 004°38'0 0.0
2017-Nov-16 09:29N 51°47' E 004°38'0 0.0
2017-Nov-16 08:59N 51°47' E 004°38'0 0.0
2017-Nov-16 08:26N 51°47' E 004°38'0 0.0
2017-Nov-16 07:56N 51°47' E 004°38'0 0.0
2017-Nov-16 07:29N 51°47' E 004°38'0 0.0
2017-Nov-16 06:59N 51°47' E 004°38'0 0.0
2017-Nov-16 06:26N 51°47' E 004°38'0 0.0
2017-Nov-16 05:56N 51°47' E 004°38'0 0.0
2017-Nov-16 05:29N 51°47' E 004°38'0 0.0
2017-Nov-16 04:56N 51°47' E 004°38'0 0.0
2017-Nov-16 04:26N 51°47' E 004°38'0 0.0
2017-Nov-16 03:59N 51°47' E 004°38'0 0.0
2017-Nov-16 03:29N 51°47' E 004°38'0 0.0
2017-Nov-16 02:59N 51°47' E 004°38'0 0.0
2017-Nov-16 02:05N 51°47' E 004°38'0 0.0
2017-Nov-16 01:59N 51°47' E 004°38'0 0.0
2017-Nov-16 01:29N 51°47' E 004°38'0 0.0
2017-Nov-16 00:59N 51°47' E 004°38'0 0.0
2017-Nov-16 00:23N 51°47' E 004°38'0 0.0
2017-Nov-15 23:53N 51°47' E 004°38'0 0.0
2017-Nov-15 23:29N 51°47' E 004°38'0 0.0
2017-Nov-15 22:59N 51°47' E 004°38'0 0.0
2017-Nov-15 22:26N 51°47' E 004°38'0 0.0
2017-Nov-15 21:59N 51°47' E 004°38'0 0.0
2017-Nov-15 21:29N 51°47' E 004°38'0 0.0
2017-Nov-15 20:56N 51°47' E 004°38'0 0.0
2017-Nov-15 20:26N 51°47' E 004°38'0 0.0
2017-Nov-15 19:59N 51°47' E 004°38'0 0.0
2017-Nov-15 19:29N 51°47' E 004°38'0 0.0
2017-Nov-15 18:59N 51°47' E 004°38'0 0.0
2017-Nov-15 18:29N 51°47' E 004°38'0 0.0
2017-Nov-15 17:59N 51°47' E 004°38'0 0.0
2017-Nov-15 17:29N 51°47' E 004°38'0 0.0
2017-Nov-15 16:59N 51°47' E 004°38'0 0.0
2017-Nov-15 16:29N 51°47' E 004°38'0 0.0
2017-Nov-15 15:59N 51°47' E 004°38'0 0.0
2017-Nov-15 15:29N 51°47' E 004°38'0 0.0
2017-Nov-15 14:53N 51°47' E 004°38'0 0.0
2017-Nov-15 14:29N 51°47' E 004°38'0 0.0
2017-Nov-15 13:59N 51°47' E 004°38'0 0.0
2017-Nov-15 13:29N 51°47' E 004°38'0 0.0
2017-Nov-15 12:59N 51°47' E 004°38'0 0.0
2017-Nov-15 12:29N 51°47' E 004°38'0 0.4
2017-Nov-15 12:00N 51°48' E 004°38'3 5.9
2017-Nov-15 11:30N 51°49' E 004°34'4 7.6
2017-Nov-15 11:00N 51°50' E 004°28'4 8.9
2017-Nov-15 10:30N 51°51' E 004°21'4 7.5
2017-Nov-15 10:00N 51°54' E 004°17'5 9.4
2017-Nov-15 09:30N 51°57' E 004°11'5 9.4
2017-Nov-15 09:00N 51°59' E 004°04'510.2
2017-Nov-15 08:30N 52°00' E 003°56'5 9.5
2017-Nov-15 08:00N 51°60' E 003°49'4 8.0
2017-Nov-15 07:30N 51°56' E 003°48'0 0.7
2017-Nov-15 06:59N 51°56' E 003°48'0 0.0
2017-Nov-15 06:29N 51°56' E 003°48'0 0.0
2017-Nov-15 05:59N 51°56' E 003°48'0 0.0
2017-Nov-15 05:29N 51°56' E 003°48'0 0.2
2017-Nov-15 04:59N 51°56' E 003°48'0 0.1
2017-Nov-15 04:23N 51°56' E 003°48'0 0.0
2017-Nov-15 03:56N 51°56' E 003°48'0 0.0
2017-Nov-15 02:41N 51°56' E 003°48'0 0.0
2017-Nov-15 02:14N 51°56' E 003°48'0 0.0
2017-Nov-15 01:56N 51°56' E 003°48'0 0.0
2017-Nov-15 01:14N 51°56' E 003°48'0 0.0
2017-Nov-15 00:50N 51°56' E 003°49'0 0.0
2017-Nov-15 00:29N 51°56' E 003°48'0 0.0
2017-Nov-14 23:41N 51°56' E 003°48'0 0.0
2017-Nov-14 23:08N 51°56' E 003°48'0 0.0
2017-Nov-14 22:53N 51°56' E 003°48'0 0.0
2017-Nov-14 22:14N 51°56' E 003°48'0 0.0
2017-Nov-14 21:56N 51°56' E 003°48'0 0.0
2017-Nov-14 21:17N 51°56' E 003°48'0 0.2
2017-Nov-14 20:50N 51°56' E 003°48'0 0.2
2017-Nov-14 20:23N 51°56' E 003°48'0 0.1
2017-Nov-14 19:59N 51°56' E 003°48'0 0.0
2017-Nov-14 19:29N 51°56' E 003°48'0 0.0
2017-Nov-14 18:56N 51°56' E 003°48'0 0.0
2017-Nov-14 18:29N 51°56' E 003°48'0 0.0
2017-Nov-14 17:59N 51°56' E 003°48'0 0.0
2017-Nov-14 17:29N 51°56' E 003°48'0 0.1
2017-Nov-14 16:59N 51°56' E 003°48'0 0.2
2017-Nov-14 16:29N 51°56' E 003°49'  
Track history (hours):
 
Tides and Currents Weather Stations Pressure Air Temp Water Temp Dewpoint Dewpoint Depression Visibility Wind Speed Wind Dir Waves Ship Positions

Else Marie Theresa

Last reported at 2017-Nov-24 02:07 UTC. Time now 2017-Nov-24 05:42 UTC.
Position N 52°32' W 005°49'.

Length 96 m; draft 6.9 m.

Type: Tanker. MMSI: 220002000.

Date/timePositionNaut miles runAvg speedWind from/ knotsBaromVisibWave heightAir tempDewpointWater temp
2017-Nov-24 02:07N 52°32' W 005°49'1 9.5
2017-Nov-24 02:00N 52°31' W 005°49'5 9.7
2017-Nov-24 01:29N 52°26' W 005°49'5 9.9
2017-Nov-24 01:01N 52°21' W 005°48'510.2
2017-Nov-24 00:30N 52°16' W 005°48'611.0
2017-Nov-24 00:00N 52°10' W 005°47'611.5
2017-Nov-23 23:31N 52°05' W 005°47'3311.9
2017-Nov-23 20:45N 51°32' W 005°51'411.4
2017-Nov-23 20:23N 51°28' W 005°51'2711.1
2017-Nov-23 18:00N 51°01' W 005°51'510.4
2017-Nov-23 17:30N 50°56' W 005°51'510.2
2017-Nov-23 17:00N 50°51' W 005°51'510.2
2017-Nov-23 16:30N 50°46' W 005°51'510.1
2017-Nov-23 16:01N 50°41' W 005°52'510.0
2017-Nov-23 15:31N 50°36' W 005°52'5 9.9
2017-Nov-23 15:00N 50°31' W 005°52'5 9.7
2017-Nov-23 14:30N 50°26' W 005°53'4 9.2
2017-Nov-23 14:01N 50°21' W 005°53'5 9.4
2017-Nov-23 13:29N 50°16' W 005°53'4 9.1
2017-Nov-23 13:00N 50°12' W 005°52'4 8.7
2017-Nov-23 12:30N 50°08' W 005°52'5 8.8
2017-Nov-23 11:59N 50°03' W 005°51'12 7.1
2017-Nov-23 10:16N 49°57' W 005°35'2 8.1
2017-Nov-23 09:59N 49°57' W 005°32'7 7.9
2017-Nov-23 09:06N 49°55' W 005°21'4 7.4
2017-Nov-23 08:30N 49°55' W 005°14'3 7.0
2017-Nov-23 08:01N 49°54' W 005°09'4 7.2
2017-Nov-23 07:31N 49°55' W 005°03'4 7.1
2017-Nov-23 07:00N 49°55' W 004°58'3 6.9
2017-Nov-23 06:30N 49°56' W 004°52'4 7.3
2017-Nov-23 06:01N 49°56' W 004°47'4 7.4
2017-Nov-23 05:31N 49°57' W 004°41'3 6.9
2017-Nov-23 05:00N 49°58' W 004°36'4 7.1
2017-Nov-23 04:31N 49°59' W 004°31'4 7.2
2017-Nov-23 04:01N 49°59' W 004°25'4 7.3
2017-Nov-23 03:31N 49°60' W 004°20'4 7.5
2017-Nov-23 03:01N 50°00' W 004°14'4 7.7
2017-Nov-23 02:31N 50°01' W 004°08'4 7.7
2017-Nov-23 02:00N 50°01' W 004°02'4 7.8
2017-Nov-23 01:30N 50°02' W 003°56'4 7.5
2017-Nov-23 00:55N 50°03' W 003°49'3 7.0
2017-Nov-23 00:31N 50°04' W 003°45'3 6.5
2017-Nov-23 00:00N 50°05' W 003°40'3 6.3
2017-Nov-22 23:31N 50°05' W 003°35'3 5.6
2017-Nov-22 23:01N 50°06' W 003°31'2 5.0
2017-Nov-22 22:31N 50°07' W 003°27'2 4.5
2017-Nov-22 22:00N 50°07' W 003°24'2 4.4
2017-Nov-22 21:30N 50°08' W 003°21'2 4.5
2017-Nov-22 21:00N 50°08' W 003°17'2 4.5
2017-Nov-22 20:31N 50°09' W 003°14'2 4.3
2017-Nov-22 20:01N 50°09' W 003°10'2 4.8
2017-Nov-22 19:31N 50°09' W 003°07'  
2017-Nov-20 00:31N 51°48' E 004°39'0 0.0
2017-Nov-20 00:01N 51°48' E 004°39'0 0.1
2017-Nov-19 23:30N 51°48' E 004°39'1 1.1
2017-Nov-19 23:00N 51°47' E 004°38'0 0.0
2017-Nov-19 22:30N 51°47' E 004°38'0 0.0
2017-Nov-19 21:58N 51°47' E 004°38'0 0.0
2017-Nov-19 21:28N 51°47' E 004°38'0 0.0
2017-Nov-19 20:55N 51°47' E 004°38'0 0.0
2017-Nov-19 20:28N 51°47' E 004°38'0 0.0
2017-Nov-19 19:58N 51°47' E 004°38'0 0.0
2017-Nov-19 19:28N 51°47' E 004°38'0 0.0
2017-Nov-19 18:58N 51°47' E 004°38'0 0.0
2017-Nov-19 18:28N 51°47' E 004°38'0 0.0
2017-Nov-19 17:58N 51°47' E 004°38'0 0.0
2017-Nov-19 17:25N 51°47' E 004°38'0 0.0
2017-Nov-19 16:58N 51°47' E 004°38'0 0.0
2017-Nov-19 16:28N 51°47' E 004°38'0 0.0
2017-Nov-19 15:55N 51°47' E 004°38'0 0.0
2017-Nov-19 15:28N 51°47' E 004°38'0 0.0
2017-Nov-19 14:52N 51°47' E 004°38'0 0.0
2017-Nov-19 14:22N 51°47' E 004°38'0 0.0
2017-Nov-19 13:43N 51°47' E 004°38'0 0.0
2017-Nov-19 13:22N 51°47' E 004°38'0 0.0
2017-Nov-19 12:55N 51°47' E 004°38'0 0.0
2017-Nov-19 12:25N 51°47' E 004°38'0 0.0
2017-Nov-19 11:55N 51°47' E 004°38'0 0.0
2017-Nov-19 11:28N 51°47' E 004°38'0 0.0
2017-Nov-19 10:58N 51°47' E 004°38'0 0.0
2017-Nov-19 10:28N 51°47' E 004°38'0 0.0
2017-Nov-19 09:58N 51°47' E 004°38'0 0.0
2017-Nov-19 09:25N 51°47' E 004°38'0 0.0
2017-Nov-19 08:58N 51°47' E 004°38'0 0.0
2017-Nov-19 08:28N 51°47' E 004°38'0 0.0
2017-Nov-19 07:58N 51°47' E 004°38'0 0.0
2017-Nov-19 07:28N 51°47' E 004°38'0 0.0
2017-Nov-19 06:58N 51°47' E 004°38'0 0.0
2017-Nov-19 06:28N 51°47' E 004°38'0 0.0
2017-Nov-19 05:58N 51°47' E 004°38'0 0.0
2017-Nov-19 05:28N 51°47' E 004°38'0 0.0
2017-Nov-19 04:58N 51°47' E 004°38'0 0.0
2017-Nov-19 04:25N 51°47' E 004°38'0 0.0
2017-Nov-19 03:58N 51°47' E 004°38'0 0.0
2017-Nov-19 03:28N 51°47' E 004°38'0 0.0
2017-Nov-19 02:49N 51°47' E 004°38'0 0.0
2017-Nov-19 02:28N 51°47' E 004°38'0 0.0
2017-Nov-19 01:55N 51°47' E 004°38'0 0.0
2017-Nov-19 01:28N 51°47' E 004°38'0 0.0
2017-Nov-19 01:01N 51°47' E 004°38'1 1.2
2017-Nov-19 00:31N 51°48' E 004°39'0 0.0
2017-Nov-19 00:00N 51°48' E 004°39'0 0.0
2017-Nov-18 23:30N 51°48' E 004°39'0 0.0
2017-Nov-18 23:00N 51°48' E 004°39'0 0.0
2017-Nov-18 22:31N 51°48' E 004°39'0 0.0
2017-Nov-18 22:01N 51°48' E 004°39'0 0.0
2017-Nov-18 21:30N 51°48' E 004°39'0 0.0
2017-Nov-18 21:00N 51°48' E 004°39'0 0.0
2017-Nov-18 20:30N 51°48' E 004°39'0 0.0
2017-Nov-18 20:00N 51°48' E 004°39'0 0.0
2017-Nov-18 19:30N 51°48' E 004°39'0 0.0
2017-Nov-18 19:01N 51°48' E 004°39'0 0.0
2017-Nov-18 18:28N 51°48' E 004°39'0 0.0
2017-Nov-18 18:00N 51°48' E 004°39'0 0.0
2017-Nov-18 17:30N 51°48' E 004°39'0 0.0
2017-Nov-18 17:00N 51°48' E 004°39'0 0.0
2017-Nov-18 16:30N 51°48' E 004°39'0 0.0
2017-Nov-18 16:00N 51°48' E 004°39'0 0.0
2017-Nov-18 15:28N 51°48' E 004°39'0 0.0
2017-Nov-18 15:00N 51°48' E 004°39'0 0.0
2017-Nov-18 14:30N 51°48' E 004°39'0 0.0
2017-Nov-18 14:01N 51°48' E 004°39'0 0.0
2017-Nov-18 13:31N 51°48' E 004°39'0 0.0
2017-Nov-18 13:00N 51°48' E 004°39'0 0.0
2017-Nov-18 12:29N 51°48' E 004°39'0 0.0
2017-Nov-18 12:01N 51°48' E 004°39'0 0.0
2017-Nov-18 11:31N 51°48' E 004°39'0 0.0
2017-Nov-18 11:00N 51°48' E 004°39'0 0.0
2017-Nov-18 10:30N 51°48' E 004°39'0 0.0
2017-Nov-18 10:00N 51°48' E 004°39'0 0.0
2017-Nov-18 09:30N 51°48' E 004°39'0 0.0
2017-Nov-18 08:56N 51°48' E 004°39'0 0.0
2017-Nov-18 08:31N 51°48' E 004°39'0 0.0
2017-Nov-18 08:00N 51°48' E 004°39'0 0.0
2017-Nov-18 07:31N 51°48' E 004°39'0 0.0
2017-Nov-18 06:58N 51°48' E 004°39'0 0.0
2017-Nov-18 06:29N 51°48' E 004°39'0 0.0
2017-Nov-18 05:59N 51°48' E 004°39'0 0.0
2017-Nov-18 05:30N 51°48' E 004°39'0 0.0
2017-Nov-18 05:01N 51°48' E 004°39'0 0.0
2017-Nov-18 04:30N 51°48' E 004°39'0 0.0
2017-Nov-18 04:00N 51°48' E 004°39'0 0.0
2017-Nov-18 03:27N 51°48' E 004°39'0 0.0
2017-Nov-18 03:00N 51°48' E 004°39'0 0.0
2017-Nov-18 02:30N 51°48' E 004°39'0 0.0
2017-Nov-18 02:00N 51°48' E 004°39'0 0.0
2017-Nov-18 01:29N 51°48' E 004°39'0 0.0
2017-Nov-18 01:01N 51°48' E 004°39'0 0.0
2017-Nov-18 00:31N 51°48' E 004°39'0 0.0
2017-Nov-18 00:00N 51°48' E 004°39'0 0.0
2017-Nov-17 23:31N 51°48' E 004°39'0 0.0
2017-Nov-17 22:59N 51°48' E 004°39'0 0.0
2017-Nov-17 22:30N 51°48' E 004°39'0 0.0
2017-Nov-17 21:59N 51°48' E 004°39'0 0.0
2017-Nov-17 21:26N 51°48' E 004°39'0 0.0
2017-Nov-17 20:59N 51°48' E 004°39'0 0.0
2017-Nov-17 20:27N 51°48' E 004°39'0 0.0
2017-Nov-17 20:00N 51°48' E 004°39'0 0.0
2017-Nov-17 19:31N 51°48' E 004°39'0 0.0
2017-Nov-17 19:00N 51°48' E 004°39'0 0.0
2017-Nov-17 18:31N 51°48' E 004°39'0 0.0
2017-Nov-17 18:01N 51°48' E 004°39'0 0.0
2017-Nov-17 17:30N 51°48' E 004°39'0 0.0
2017-Nov-17 17:01N 51°48' E 004°39'0 0.0
2017-Nov-17 16:27N 51°48' E 004°39'0 0.0
2017-Nov-17 16:00N 51°48' E 004°39'0 0.0
2017-Nov-17 15:31N 51°48' E 004°39'0 0.0
2017-Nov-17 15:01N 51°48' E 004°39'0 0.0
2017-Nov-17 14:30N 51°48' E 004°39'0 0.0
2017-Nov-17 14:00N 51°48' E 004°39'0 0.0
2017-Nov-17 13:31N 51°48' E 004°39'0 0.0
2017-Nov-17 13:01N 51°48' E 004°39'0 0.0
2017-Nov-17 12:30N 51°48' E 004°39'0 0.0
2017-Nov-17 12:01N 51°48' E 004°39'0 0.0
2017-Nov-17 11:28N 51°48' E 004°39'0 0.0
2017-Nov-17 11:01N 51°48' E 004°39'0 0.0
2017-Nov-17 10:27N 51°48' E 004°39'0 0.0
2017-Nov-17 10:01N 51°48' E 004°39'0 0.0
2017-Nov-17 09:31N 51°48' E 004°39'0 0.0
2017-Nov-17 09:00N 51°48' E 004°39'0 0.0
2017-Nov-17 08:30N 51°48' E 004°39'0 0.0
2017-Nov-17 08:00N 51°48' E 004°39'0 0.0
2017-Nov-17 07:30N 51°48' E 004°39'0 0.0
2017-Nov-17 06:59N 51°48' E 004°39'0 0.0
2017-Nov-17 06:30N 51°48' E 004°39'0 0.0
2017-Nov-17 06:00N 51°48' E 004°39'0 0.0
2017-Nov-17 05:30N 51°48' E 004°39'0 0.0
2017-Nov-17 05:01N 51°48' E 004°39'0 0.0
2017-Nov-17 04:28N 51°48' E 004°39'0 0.0
2017-Nov-17 04:00N 51°48' E 004°39'0 0.0
2017-Nov-17 03:31N 51°48' E 004°39'0 0.0
2017-Nov-17 02:59N 51°48' E 004°39'0 0.0
2017-Nov-17 02:31N 51°48' E 004°39'0 0.0
2017-Nov-17 02:00N 51°48' E 004°39'0 0.0
2017-Nov-17 01:29N 51°48' E 004°39'0 0.0
2017-Nov-17 01:00N 51°48' E 004°39'0 0.0
2017-Nov-17 00:31N 51°48' E 004°39'0 0.0
2017-Nov-17 00:00N 51°48' E 004°39'0 0.0
2017-Nov-16 23:30N 51°48' E 004°39'0 0.0
2017-Nov-16 23:00N 51°48' E 004°39'0 0.0
2017-Nov-16 22:31N 51°48' E 004°39'0 0.0
2017-Nov-16 22:01N 51°48' E 004°39'0 0.0
2017-Nov-16 21:30N 51°48' E 004°39'0 0.0
2017-Nov-16 20:57N 51°48' E 004°39'0 0.0
2017-Nov-16 20:28N 51°48' E 004°39'0 0.0
2017-Nov-16 20:00N 51°48' E 004°39'0 0.0
2017-Nov-16 19:30N 51°48' E 004°39'0 0.0
2017-Nov-16 19:01N 51°48' E 004°39'0 0.0
2017-Nov-16 18:30N 51°48' E 004°39'0 0.0
2017-Nov-16 18:01N 51°48' E 004°39'0 0.0
2017-Nov-16 17:28N 51°48' E 004°39'0 0.0
2017-Nov-16 17:00N 51°48' E 004°39'0 0.0
2017-Nov-16 16:31N 51°48' E 004°39'0 0.0
2017-Nov-16 15:59N 51°48' E 004°39'0 0.0
2017-Nov-16 15:31N 51°48' E 004°39'0 0.0
2017-Nov-16 15:01N 51°48' E 004°39'0 0.0
2017-Nov-16 14:30N 51°48' E 004°39'0 0.0
2017-Nov-16 14:01N 51°48' E 004°39'0 0.0
2017-Nov-16 13:30N 51°48' E 004°39'0 0.0
2017-Nov-16 13:01N 51°48' E 004°39'0 0.0
2017-Nov-16 12:30N 51°48' E 004°39'1 1.0
2017-Nov-16 11:59N 51°47' E 004°38'0 0.0
2017-Nov-16 11:29N 51°47' E 004°38'0 0.0
2017-Nov-16 10:59N 51°47' E 004°38'0 0.0
2017-Nov-16 10:29N 51°47' E 004°38'0 0.0
2017-Nov-16 09:59N 51°47' E 004°38'0 0.0
2017-Nov-16 09:29N 51°47' E 004°38'0 0.0
2017-Nov-16 08:59N 51°47' E 004°38'0 0.0
2017-Nov-16 08:26N 51°47' E 004°38'0 0.0
2017-Nov-16 07:56N 51°47' E 004°38'0 0.0
2017-Nov-16 07:29N 51°47' E 004°38'0 0.0
2017-Nov-16 06:59N 51°47' E 004°38'0 0.0
2017-Nov-16 06:26N 51°47' E 004°38'0 0.0
2017-Nov-16 05:56N 51°47' E 004°38'0 0.0
2017-Nov-16 05:29N 51°47' E 004°38'0 0.0
2017-Nov-16 04:56N 51°47' E 004°38'0 0.0
2017-Nov-16 04:26N 51°47' E 004°38'0 0.0
2017-Nov-16 03:59N 51°47' E 004°38'0 0.0
2017-Nov-16 03:29N 51°47' E 004°38'0 0.0
2017-Nov-16 02:59N 51°47' E 004°38'0 0.0
2017-Nov-16 02:05N 51°47' E 004°38'0 0.0
2017-Nov-16 01:59N 51°47' E 004°38'0 0.0
2017-Nov-16 01:29N 51°47' E 004°38'0 0.0
2017-Nov-16 00:59N 51°47' E 004°38'0 0.0
2017-Nov-16 00:23N 51°47' E 004°38'0 0.0
2017-Nov-15 23:53N 51°47' E 004°38'0 0.0
2017-Nov-15 23:29N 51°47' E 004°38'0 0.0
2017-Nov-15 22:59N 51°47' E 004°38'0 0.0
2017-Nov-15 22:26N 51°47' E 004°38'0 0.0
2017-Nov-15 21:59N 51°47' E 004°38'0 0.0
2017-Nov-15 21:29N 51°47' E 004°38'0 0.0
2017-Nov-15 20:56N 51°47' E 004°38'0 0.0
2017-Nov-15 20:26N 51°47' E 004°38'0 0.0
2017-Nov-15 19:59N 51°47' E 004°38'0 0.0
2017-Nov-15 19:29N 51°47' E 004°38'0 0.0
2017-Nov-15 18:59N 51°47' E 004°38'0 0.0
2017-Nov-15 18:29N 51°47' E 004°38'0 0.0
2017-Nov-15 17:59N 51°47' E 004°38'0 0.0
2017-Nov-15 17:29N 51°47' E 004°38'0 0.0
2017-Nov-15 16:59N 51°47' E 004°38'0 0.0
2017-Nov-15 16:29N 51°47' E 004°38'0 0.0
2017-Nov-15 15:59N 51°47' E 004°38'0 0.0
2017-Nov-15 15:29N 51°47' E 004°38'0 0.0
2017-Nov-15 14:53N 51°47' E 004°38'0 0.0
2017-Nov-15 14:29N 51°47' E 004°38'0 0.0
2017-Nov-15 13:59N 51°47' E 004°38'0 0.0
2017-Nov-15 13:29N 51°47' E 004°38'0 0.0
2017-Nov-15 12:59N 51°47' E 004°38'0 0.0
2017-Nov-15 12:29N 51°47' E 004°38'0 0.4
2017-Nov-15 12:00N 51°48' E 004°38'3 5.9
2017-Nov-15 11:30N 51°49' E 004°34'4 7.6
2017-Nov-15 11:00N 51°50' E 004°28'4 8.9
2017-Nov-15 10:30N 51°51' E 004°21'4 7.5
2017-Nov-15 10:00N 51°54' E 004°17'5 9.4
2017-Nov-15 09:30N 51°57' E 004°11'5 9.4
2017-Nov-15 09:00N 51°59' E 004°04'510.2
2017-Nov-15 08:30N 52°00' E 003°56'5 9.5
2017-Nov-15 08:00N 51°60' E 003°49'4 8.0
2017-Nov-15 07:30N 51°56' E 003°48'0 0.7
2017-Nov-15 06:59N 51°56' E 003°48'0 0.0
2017-Nov-15 06:29N 51°56' E 003°48'0 0.0
2017-Nov-15 05:59N 51°56' E 003°48'0 0.0
2017-Nov-15 05:29N 51°56' E 003°48'0 0.2
2017-Nov-15 04:59N 51°56' E 003°48'0 0.1
2017-Nov-15 04:23N 51°56' E 003°48'0 0.0
2017-Nov-15 03:56N 51°56' E 003°48'0 0.0
2017-Nov-15 02:41N 51°56' E 003°48'0 0.0
2017-Nov-15 02:14N 51°56' E 003°48'0 0.0
2017-Nov-15 01:56N 51°56' E 003°48'0 0.0
2017-Nov-15 01:14N 51°56' E 003°48'0 0.0
2017-Nov-15 00:50N 51°56' E 003°49'0 0.0
2017-Nov-15 00:29N 51°56' E 003°48'0 0.0
2017-Nov-14 23:41N 51°56' E 003°48'0 0.0
2017-Nov-14 23:08N 51°56' E 003°48'0 0.0
2017-Nov-14 22:53N 51°56' E 003°48'0 0.0
2017-Nov-14 22:14N 51°56' E 003°48'0 0.0
2017-Nov-14 21:56N 51°56' E 003°48'0 0.0
2017-Nov-14 21:17N 51°56' E 003°48'0 0.2
2017-Nov-14 20:50N 51°56' E 003°48'0 0.2
2017-Nov-14 20:23N 51°56' E 003°48'0 0.1
2017-Nov-14 19:59N 51°56' E 003°48'0 0.0
2017-Nov-14 19:29N 51°56' E 003°48'0 0.0
2017-Nov-14 18:56N 51°56' E 003°48'0 0.0
2017-Nov-14 18:29N 51°56' E 003°48'0 0.0
2017-Nov-14 17:59N 51°56' E 003°48'0 0.0
2017-Nov-14 17:29N 51°56' E 003°48'0 0.1
2017-Nov-14 16:59N 51°56' E 003°48'0 0.2
2017-Nov-14 16:29N 51°56' E 003°49'  

Dump ship's entire track history